Terminal Aerodrome Forecast
Issued by NWS

Home | Current Version | Previous Version | Text Only | Print | Product List | Glossary On
Versions: 1 2 3 4 5 6 7 8 9 10 11 12 13 14 15 16 17
000
FTUS44 KSJT 310520
TAFSOA
TAF
KSOA 310520Z 3106/0106 VRB04KT P6SM SCT100 BKN250
     FM311100 VRB03KT P6SM BKN020
     FM311500 06006KT P6SM SCT015 BKN035
     FM311900 06005KT P6SM BKN060=

USA.gov is the U.S. government's official web portal to all federal, state and local government web resources and services.